Time;durP1;ratioP1;P1;durP2;ratioP2;P2;SDS_P1;SDS_P2;PMS_P1;PMS_P2;Temp;Humidity;BMP_temperature;BMP_pressure;BME280_temperature;BME280_humidity;BME280_pressure;Samples;Min_cycle;Max_cycle;Signal;HPM_P1;HPM_P2
2023/09/29 00:00:54;;;;;;;;;;;;;;;-144.99;100.00;52276.88;5043441;28;19975;-69
2023/09/29 00:03:21;;;;;;;;;;;;;;;-144.99;100.00;52299.31;5048127;28;19962;-68
2023/09/29 00:05:49;;;;;;;;;;;;;;;-144.99;100.00;52285.03;5044052;28;19982;-69
2023/09/29 00:08:17;;;;;;;;;;;;;;;-144.99;100.00;52297.25;5043971;28;19945;-69
2023/09/29 00:10:45;;;;;;;;;;;;;;;-144.99;100.00;52283.00;5044736;28;20667;-68
2023/09/29 00:13:11;;;;;;;;;;;;;;;-144.99;100.00;52293.19;5044187;28;20312;-68
2023/09/29 00:15:39;;;;;;;;;;;;;;;-144.99;100.00;52276.88;5049353;28;19941;-68
2023/09/29 00:18:07;;;;;;;;;;;;;;;-144.99;100.00;52285.03;5041326;28;20460;-69
2023/09/29 00:20:33;;;;;;;;;;;;;;;-144.99;100.00;52301.34;5041369;28;20397;-69
2023/09/29 00:23:00;;;;;;;;;;;;;;;-144.99;100.00;52301.34;5039071;28;20070;-68
2023/09/29 00:25:27;;;;;;;;;;;;;;;-144.99;100.00;52289.13;5049789;28;19987;-69
2023/09/29 00:27:55;;;;;;;;;;;;;;;-144.99;100.00;52278.91;5042775;28;20471;-69
2023/09/29 00:30:21;;;;;;;;;;;;;;;-144.99;100.00;52297.25;5047762;28;19992;-67
2023/09/29 00:32:50;;;;;;;;;;;;;;;-144.99;100.00;52268.72;5044043;28;20067;-64
2023/09/29 00:35:24;;;;;;;;;;;;;;;-144.99;100.00;52329.88;5045223;28;20417;-66
2023/09/29 00:37:50;;;;;;;;;;;;;;;-144.99;100.00;52289.13;5044033;28;20000;-63
2023/09/29 00:40:17;;;;;;;;;;;;;;;-144.99;100.00;52287.06;5042875;28;19957;-64
2023/09/29 00:42:44;;;;;;;;;;;;;;;-144.99;100.00;52305.41;5047399;28;19996;-63
2023/09/29 00:45:11;;;;;;;;;;;;;;;-144.99;100.00;52285.03;5045653;28;19960;-62
2023/09/29 00:47:39;;;;;;;;;;;;;;;-144.99;100.00;52289.13;5038808;28;19966;-67
2023/09/29 00:50:09;;;;;;;;;;;;;;;-144.99;100.00;52260.56;5046833;28;19966;-67
2023/09/29 00:52:37;;;;;;;;;;;;;;;-144.99;100.00;52272.81;5041819;28;19940;-68
2023/09/29 00:55:05;;;;;;;;;;;;;;;-144.99;100.00;52305.41;5048633;28;20388;-66
2023/09/29 00:57:33;;;;;;;;;;;;;;;-144.99;100.00;52268.72;5044154;28;19940;-66
2023/09/29 01:00:00;;;;;;;;;;;;;;;-144.99;100.00;52303.38;5038871;28;19957;-67
2023/09/29 01:02:28;;;;;;;;;;;;;;;-144.99;100.00;52325.81;5041709;28;19963;-66
2023/09/29 01:04:54;;;;;;;;;;;;;;;-144.99;100.00;52317.66;5042994;28;20324;-67
2023/09/29 01:07:22;;;;;;;;;;;;;;;-144.99;100.00;52297.25;5043606;28;19946;-69
2023/09/29 01:09:49;;;;;;;;;;;;;;;-144.99;100.00;52278.91;5047451;28;20251;-69
2023/09/29 01:12:25;;;;;;;;;;;;;;;-144.99;100.00;52276.88;5040277;28;20021;-68
2023/09/29 01:14:51;;;;;;;;;;;;;;;-144.99;100.00;52301.34;5049504;28;19993;-71
2023/09/29 01:17:19;;;;;;;;;;;;;;;-144.99;100.00;52309.50;5049188;28;19951;-70
2023/09/29 01:19:47;;;;;;;;;;;;;;;-144.99;100.00;52258.53;5048840;28;20443;-70
2023/09/29 01:22:14;;;;;;;;;;;;;;;-144.99;100.00;52268.72;5038986;28;20336;-68
2023/09/29 01:24:44;;;;;;;;;;;;;;;-144.99;100.00;52280.97;5044094;28;20016;-68
2023/09/29 01:27:10;;;;;;;;;;;;;;;-144.99;100.00;52280.97;5048671;28;19946;-68
2023/09/29 01:29:41;;;;;;;;;;;;;;;-144.99;100.00;52323.75;5043040;28;19953;-67
2023/09/29 01:32:11;;;;;;;;;;;;;;;-144.99;100.00;52297.25;5046164;28;19945;-65
2023/09/29 01:34:38;;;;;;;;;;;;;;;-144.99;100.00;52297.25;5036977;28;19951;-65
2023/09/29 01:37:04;;;;;;;;;;;;;;;-144.99;100.00;52268.72;5044309;28;20024;-66
2023/09/29 01:39:31;;;;;;;;;;;;;;;-144.99;100.00;52301.34;5037205;28;20507;-66
2023/09/29 01:42:00;;;;;;;;;;;;;;;-144.99;100.00;52289.13;5036890;28;19976;-65
2023/09/29 01:44:26;;;;;;;;;;;;;;;-144.99;100.00;52293.19;5042926;28;19946;-66
2023/09/29 01:46:53;;;;;;;;;;;;;;;-144.99;100.00;52313.56;5048476;28;19971;-66
2023/09/29 01:49:20;;;;;;;;;;;;;;;-144.99;100.00;52301.34;5046294;28;19962;-67
2023/09/29 01:51:48;;;;;;;;;;;;;;;-144.99;100.00;52285.03;5045496;28;19945;-68
2023/09/29 01:54:14;;;;;;;;;;;;;;;-144.99;100.00;52291.16;5052222;28;20391;-68
2023/09/29 01:56:41;;;;;;;;;;;;;;;-144.99;100.00;52264.66;5046470;28;20036;-68
2023/09/29 01:59:10;;;;;;;;;;;;;;;-144.99;100.00;52289.13;5049287;28;19964;-68
2023/09/29 02:01:37;;;;;;;;;;;;;;;-144.99;100.00;52285.03;5046915;28;20024;-68
2023/09/29 02:04:04;;;;;;;;;;;;;;;-144.99;100.00;52283.00;5040006;28;20078;-64
2023/09/29 02:06:31;;;;;;;;;;;;;;;-144.99;100.00;52268.72;5049767;28;19975;-64
2023/09/29 02:08:57;;;;;;;;;;;;;;;-144.99;100.00;52305.41;5048725;28;19955;-64
2023/09/29 02:11:24;;;;;;;;;;;;;;;-144.99;100.00;52258.53;5051749;28;20027;-64
2023/09/29 02:13:50;;;;;;;;;;;;;;;-144.99;100.00;52309.50;5048329;28;20030;-63
2023/09/29 02:16:18;;;;;;;;;;;;;;;-144.99;100.00;52276.88;5047188;28;20416;-64
2023/09/29 02:18:46;;;;;;;;;;;;;;;-144.99;100.00;52297.25;5051918;28;19941;-64
2023/09/29 02:21:21;;;;;;;;;;;;;;;-144.99;100.00;52285.03;5046235;28;19947;-61
2023/09/29 02:23:48;;;;;;;;;;;;;;;-144.99;100.00;52280.97;5046316;28;20211;-63
2023/09/29 02:26:14;;;;;;;;;;;;;;;-144.99;100.00;52276.88;5051946;28;20419;-63
2023/09/29 02:28:41;;;;;;;;;;;;;;;-144.99;100.00;52309.50;5046626;28;20015;-63
2023/09/29 02:31:12;;;;;;;;;;;;;;;-144.99;100.00;52301.34;5051440;28;19960;-63
2023/09/29 02:33:40;;;;;;;;;;;;;;;-144.99;100.00;52285.03;5042689;28;19941;-63
2023/09/29 02:36:07;;;;;;;;;;;;;;;-144.99;100.00;52262.63;5050183;28;19966;-62
2023/09/29 02:38:33;;;;;;;;;;;;;;;-144.99;100.00;52280.97;5044980;28;20029;-63
2023/09/29 02:41:00;;;;;;;;;;;;;;;-144.99;100.00;52283.00;5052452;28;19998;-65
2023/09/29 02:43:30;;;;;;;;;;;;;;;-144.99;100.00;52325.81;5050353;28;20014;-67
2023/09/29 02:45:56;;;;;;;;;;;;;;;-144.99;100.00;52270.78;5046793;28;19946;-64
2023/09/29 02:48:23;;;;;;;;;;;;;;;-144.99;100.00;52321.72;5049499;28;19945;-64
2023/09/29 02:50:51;;;;;;;;;;;;;;;-144.99;100.00;52325.81;5051500;28;20009;-64
2023/09/29 02:53:18;;;;;;;;;;;;;;;-144.99;100.00;52289.13;5051704;28;19992;-63
2023/09/29 02:55:45;;;;;;;;;;;;;;;-144.99;100.00;52307.47;5044607;28;19975;-64
2023/09/29 02:58:11;;;;;;;;;;;;;;;-144.99;100.00;52321.72;5048318;28;19942;-65
2023/09/29 03:00:40;;;;;;;;;;;;;;;-144.99;100.00;52338.03;5048975;28;19960;-64
2023/09/29 03:03:07;;;;;;;;;;;;;;;-144.99;100.00;52291.16;5044506;28;20372;-66
2023/09/29 03:05:33;;;;;;;;;;;;;;;-144.99;100.00;52289.13;5047353;28;20307;-65
2023/09/29 03:08:01;;;;;;;;;;;;;;;-144.99;100.00;52280.97;5048352;28;20363;-64
2023/09/29 03:10:29;;;;;;;;;;;;;;;-144.99;100.00;52305.41;5047401;28;19957;-64
2023/09/29 03:12:56;;;;;;;;;;;;;;;-144.99;100.00;52287.06;5050871;28;19986;-63
2023/09/29 03:15:23;;;;;;;;;;;;;;;-144.99;100.00;52276.88;5048504;28;19950;-63
2023/09/29 03:17:49;;;;;;;;;;;;;;;-144.99;100.00;52295.22;5041309;28;20056;-66
2023/09/29 03:20:16;;;;;;;;;;;;;;;-144.99;100.00;52313.56;5039999;28;19971;-68
2023/09/29 03:22:43;;;;;;;;;;;;;;;-144.99;100.00;52301.34;5049642;28;19942;-67
2023/09/29 03:25:16;;;;;;;;;;;;;;;-144.99;100.00;52301.34;5043623;28;19989;-67
2023/09/29 03:27:43;;;;;;;;;;;;;;;-144.99;100.00;52307.47;5042331;28;19941;-67
2023/09/29 03:30:10;;;;;;;;;;;;;;;-144.99;100.00;52297.25;5047801;28;19964;-67
2023/09/29 03:32:37;;;;;;;;;;;;;;;-144.99;100.00;52325.81;5047521;28;19977;-66
2023/09/29 03:35:05;;;;;;;;;;;;;;;-144.99;100.00;52291.16;5046969;28;20435;-67
2023/09/29 03:37:35;;;;;;;;;;;;;;;-144.99;100.00;52301.34;5041662;28;19949;-66
2023/09/29 03:40:03;;;;;;;;;;;;;;;-144.99;100.00;52305.41;5039947;28;20017;-67
2023/09/29 03:42:32;;;;;;;;;;;;;;;-144.99;100.00;52295.22;5049828;28;20392;-67
2023/09/29 03:44:59;;;;;;;;;;;;;;;-144.99;100.00;52333.94;5051056;28;19967;-66
2023/09/29 03:47:25;;;;;;;;;;;;;;;-144.99;100.00;52307.47;5050587;28;20361;-68
2023/09/29 03:49:52;;;;;;;;;;;;;;;-144.99;100.00;52285.03;5043905;28;20017;-67
2023/09/29 03:52:19;;;;;;;;;;;;;;;-144.99;100.00;52299.31;5045366;28;20354;-65
2023/09/29 03:54:45;;;;;;;;;;;;;;;-144.99;100.00;52297.25;5043886;28;20386;-66
2023/09/29 03:57:12;;;;;;;;;;;;;;;-144.99;100.00;52303.38;5037677;28;20344;-68
2023/09/29 03:59:39;;;;;;;;;;;;;;;-144.99;100.00;52266.69;5045321;28;19965;-66
2023/09/29 04:02:06;;;;;;;;;;;;;;;-144.99;100.00;52289.13;5036804;28;20040;-66
2023/09/29 04:04:33;;;;;;;;;;;;;;;-144.99;100.00;52262.63;5042250;28;19986;-66
2023/09/29 04:06:59;;;;;;;;;;;;;;;-144.99;100.00;52309.50;5046919;28;19944;-67
2023/09/29 04:09:26;;;;;;;;;;;;;;;-144.99;100.00;52289.13;5047903;28;20047;-66
2023/09/29 04:11:52;;;;;;;;;;;;;;;-144.99;100.00;52280.97;5041324;28;19943;-61
2023/09/29 04:14:18;;;;;;;;;;;;;;;-144.99;100.00;52307.47;5047575;28;19936;-61
2023/09/29 04:16:46;;;;;;;;;;;;;;;-144.99;100.00;52280.97;5049755;28;20056;-60
2023/09/29 04:19:14;;;;;;;;;;;;;;;-144.99;100.00;52289.13;5049599;28;20021;-61
2023/09/29 04:21:41;;;;;;;;;;;;;;;-144.99;100.00;52311.53;5041061;28;19943;-61
2023/09/29 04:24:07;;;;;;;;;;;;;;;-144.99;100.00;52338.03;5046710;28;20447;-61
2023/09/29 04:26:35;;;;;;;;;;;;;;;-144.99;100.00;52301.34;5042308;28;20031;-60
2023/09/29 04:29:02;;;;;;;;;;;;;;;-144.99;100.00;52333.94;5043932;28;19937;-59
2023/09/29 04:31:28;;;;;;;;;;;;;;;-144.99;100.00;52309.50;5052143;28;19977;-61
2023/09/29 04:33:56;;;;;;;;;;;;;;;-144.99;100.00;52313.56;5037304;28;19987;-59
2023/09/29 04:36:22;;;;;;;;;;;;;;;-144.99;100.00;52262.63;5049532;28;19942;-61
2023/09/29 04:38:49;;;;;;;;;;;;;;;-144.99;100.00;52291.16;5038807;28;19971;-59
2023/09/29 04:41:16;;;;;;;;;;;;;;;-144.99;100.00;52301.34;5043124;28;20032;-65
2023/09/29 04:43:44;;;;;;;;;;;;;;;-144.99;100.00;52280.97;5044120;28;19958;-64
2023/09/29 04:46:10;;;;;;;;;;;;;;;-144.99;100.00;52297.25;5049790;28;19936;-63
2023/09/29 04:48:37;;;;;;;;;;;;;;;-144.99;100.00;52285.03;5049386;28;20028;-62
2023/09/29 04:51:04;;;;;;;;;;;;;;;-144.99;100.00;52260.56;5049494;28;20100;-59
2023/09/29 04:53:31;;;;;;;;;;;;;;;-144.99;100.00;52289.13;5046223;28;19944;-60
2023/09/29 04:55:59;;;;;;;;;;;;;;;-144.99;100.00;52293.19;5037992;28;20028;-59
2023/09/29 04:58:25;;;;;;;;;;;;;;;-144.99;100.00;52285.03;5042690;28;19996;-60
2023/09/29 05:00:52;;;;;;;;;;;;;;;-144.99;100.00;52313.56;5049188;28;20005;-60
2023/09/29 05:03:19;;;;;;;;;;;;;;;-144.99;100.00;52305.41;5039791;28;19948;-62
2023/09/29 05:05:47;;;;;;;;;;;;;;;-144.99;100.00;52289.13;5048319;28;19992;-63
2023/09/29 05:08:16;;;;;;;;;;;;;;;-144.99;100.00;52264.66;5043016;28;20047;-64
2023/09/29 05:10:43;;;;;;;;;;;;;;;-144.99;100.00;52309.50;5048050;28;20427;-64
2023/09/29 05:13:10;;;;;;;;;;;;;;;-144.99;100.00;52289.13;5077117;22;19956;-65
2023/09/29 05:15:37;;;;;;;;;;;;;;;-144.99;100.00;52276.88;5063887;28;20439;-65
2023/09/29 05:18:04;;;;;;;;;;;;;;;-144.99;100.00;52325.81;5067034;28;19990;-65
2023/09/29 05:20:30;;;;;;;;;;;;;;;-144.99;100.00;52338.03;5058202;28;19992;-66
2023/09/29 05:22:57;;;;;;;;;;;;;;;-144.99;100.00;52303.38;5059321;28;19994;-66
2023/09/29 05:25:25;;;;;;;;;;;;;;;-144.99;100.00;52305.41;5052465;28;19957;-65
2023/09/29 05:27:51;;;;;;;;;;;;;;;-144.99;100.00;52289.13;5045166;28;19992;-65
2023/09/29 05:30:19;;;;;;;;;;;;;;;-144.99;100.00;52321.72;5046128;28;20051;-65
2023/09/29 05:32:45;;;;;;;;;;;;;;;-144.99;100.00;52325.81;5044518;28;20303;-63
2023/09/29 05:35:12;;;;;;;;;;;;;;;-144.99;100.00;52264.66;5040705;28;20003;-65
2023/09/29 05:37:38;;;;;;;;;;;;;;;-144.99;100.00;52342.09;5045018;28;20396;-66
2023/09/29 05:40:06;;;;;;;;;;;;;;;-144.99;100.00;52319.69;5052318;28;20033;-65
2023/09/29 05:42:34;;;;;;;;;;;;;;;-144.99;100.00;52350.25;5052600;28;20293;-65
2023/09/29 05:45:01;;;;;;;;;;;;;;;-144.99;100.00;52342.09;5048285;28;19996;-65
2023/09/29 05:47:28;;;;;;;;;;;;;;;-144.99;100.00;52305.41;5043271;28;20078;-66
2023/09/29 05:49:54;;;;;;;;;;;;;;;-144.99;100.00;52299.31;5048085;28;20019;-67
2023/09/29 05:52:21;;;;;;;;;;;;;;;-144.99;100.00;52285.03;5058682;28;19994;-67
2023/09/29 05:54:47;;;;;;;;;;;;;;;-144.99;100.00;52309.50;5053658;28;20042;-68
2023/09/29 05:57:14;;;;;;;;;;;;;;;-144.99;100.00;52317.66;5040588;28;20393;-68
2023/09/29 05:59:42;;;;;;;;;;;;;;;-144.99;100.00;52297.25;5039877;28;20151;-68
2023/09/29 06:02:08;;;;;;;;;;;;;;;-144.99;100.00;52293.19;5046865;28;19944;-68
2023/09/29 06:04:35;;;;;;;;;;;;;;;-144.99;100.00;52280.97;5032890;28;19963;-67
2023/09/29 06:07:02;;;;;;;;;;;;;;;-144.99;100.00;52333.94;5035848;28;20300;-68
2023/09/29 06:09:30;;;;;;;;;;;;;;;-144.99;100.00;52327.84;5049215;28;20165;-69
2023/09/29 06:11:56;;;;;;;;;;;;;;;-144.99;100.00;52313.56;5045385;28;19945;-67
2023/09/29 06:14:23;;;;;;;;;;;;;;;-144.99;100.00;52293.19;5047892;28;19981;-69
2023/09/29 06:16:51;;;;;;;;;;;;;;;-144.99;100.00;52325.81;5028386;28;19945;-68
2023/09/29 06:19:18;;;;;;;;;;;;;;;-144.99;100.00;52309.50;5054518;28;19958;-68
2023/09/29 06:21:46;;;;;;;;;;;;;;;-144.99;100.00;52295.22;5050312;28;19987;-68
2023/09/29 06:24:12;;;;;;;;;;;;;;;-144.99;100.00;52293.19;5061853;28;19964;-69
2023/09/29 06:26:38;;;;;;;;;;;;;;;-144.99;100.00;52309.50;5044850;28;19945;-68
2023/09/29 06:29:06;;;;;;;;;;;;;;;-144.99;100.00;52319.69;5038560;28;20272;-68
2023/09/29 06:31:32;;;;;;;;;;;;;;;-144.99;100.00;52276.88;5054249;28;20367;-68
2023/09/29 06:34:00;;;;;;;;;;;;;;;-144.99;100.00;52293.19;5043470;28;19946;-68
2023/09/29 06:36:27;;;;;;;;;;;;;;;-144.99;100.00;52268.72;5046237;28;19937;-68
2023/09/29 06:38:53;;;;;;;;;;;;;;;-144.99;100.00;52333.94;5046194;28;19967;-68
2023/09/29 06:41:20;;;;;;;;;;;;;;;-144.99;100.00;52283.00;5050448;28;20160;-68
2023/09/29 06:43:47;;;;;;;;;;;;;;;-144.99;100.00;52289.13;5047939;28;19944;-68
2023/09/29 06:46:13;;;;;;;;;;;;;;;-144.99;100.00;52285.03;5032780;28;20431;-68
2023/09/29 06:48:40;;;;;;;;;;;;;;;-144.99;100.00;52285.03;5060388;28;19967;-68
2023/09/29 06:51:08;;;;;;;;;;;;;;;-144.99;100.00;52305.41;5035161;28;20057;-70
2023/09/29 06:53:34;;;;;;;;;;;;;;;-144.99;100.00;52289.13;5045227;28;20239;-70
2023/09/29 06:56:01;;;;;;;;;;;;;;;-144.99;100.00;52278.91;5050582;28;20436;-70
2023/09/29 06:58:27;;;;;;;;;;;;;;;-144.99;100.00;52307.47;5062301;28;19982;-71
2023/09/29 07:00:56;;;;;;;;;;;;;;;-144.99;100.00;52297.25;5053681;28;19953;-70
2023/09/29 07:03:23;;;;;;;;;;;;;;;-144.99;100.00;52289.13;5053031;28;20400;-71
2023/09/29 07:05:50;;;;;;;;;;;;;;;-144.99;100.00;52278.91;5047865;28;19956;-68
2023/09/29 07:08:18;;;;;;;;;;;;;;;-144.99;100.00;52252.44;5058457;28;20247;-71
2023/09/29 07:10:45;;;;;;;;;;;;;;;-144.99;100.00;52285.03;5058638;28;20459;-70
2023/09/29 07:13:12;;;;;;;;;;;;;;;-144.99;100.00;52264.66;5041311;28;20401;-68
2023/09/29 07:15:38;;;;;;;;;;;;;;;-144.99;100.00;52305.41;5059454;28;19985;-69
2023/09/29 07:18:10;;;;;;;;;;;;;;;-144.99;100.00;52280.97;5054949;28;20030;-69
2023/09/29 07:20:37;;;;;;;;;;;;;;;-144.99;100.00;52287.06;5056139;28;20379;-69
2023/09/29 07:23:03;;;;;;;;;;;;;;;-144.99;100.00;52317.66;5043957;28;19961;-69
2023/09/29 07:25:31;;;;;;;;;;;;;;;-144.99;100.00;52301.34;5042272;28;19953;-69
2023/09/29 07:27:58;;;;;;;;;;;;;;;-144.99;100.00;52301.34;5058678;28;19995;-69
2023/09/29 07:30:24;;;;;;;;;;;;;;;-144.99;100.00;52295.22;5054103;28;19971;-70
2023/09/29 07:32:51;;;;;;;;;;;;;;;-144.99;100.00;52297.25;5048997;28;19985;-69
2023/09/29 07:35:18;;;;;;;;;;;;;;;-144.99;100.00;52307.47;5043137;28;19978;-70
2023/09/29 07:37:45;;;;;;;;;;;;;;;-144.99;100.00;52280.97;5050192;28;20427;-69
2023/09/29 07:40:13;;;;;;;;;;;;;;;-144.99;100.00;52297.25;5055459;28;19925;-70
2023/09/29 07:42:41;;;;;;;;;;;;;;;-144.99;100.00;52301.34;5052054;28;19925;-69
2023/09/29 07:45:08;;;;;;;;;;;;;;;-144.99;100.00;52301.34;5041544;28;19971;-70
2023/09/29 07:47:34;;;;;;;;;;;;;;;-144.99;100.00;52325.81;5042119;28;19944;-71
2023/09/29 07:50:01;;;;;;;;;;;;;;;-144.99;100.00;52327.84;5038386;28;20007;-69
2023/09/29 07:52:28;;;;;;;;;;;;;;;-144.99;100.00;52283.00;5031220;28;20027;-69
2023/09/29 07:54:55;;;;;;;;;;;;;;;-144.99;100.00;52305.41;5051970;28;19952;-69
2023/09/29 07:57:22;;;;;;;;;;;;;;;-144.99;100.00;52285.03;5040649;28;19969;-69
2023/09/29 07:59:50;;;;;;;;;;;;;;;-144.99;100.00;52297.25;5044995;28;20515;-69
2023/09/29 08:02:17;;;;;;;;;;;;;;;-144.99;100.00;52287.06;5043580;28;19939;-68
2023/09/29 08:04:43;;;;;;;;;;;;;;;-144.99;100.00;52285.03;5051041;28;19955;-70
2023/09/29 08:07:11;;;;;;;;;;;;;;;-144.99;100.00;52285.03;5054453;28;19935;-66
2023/09/29 08:09:38;;;;;;;;;;;;;;;-144.99;100.00;52309.50;5058552;28;20015;-67
2023/09/29 08:12:04;;;;;;;;;;;;;;;-144.99;100.00;52285.03;5039842;28;20042;-67
2023/09/29 08:14:31;;;;;;;;;;;;;;;-144.99;100.00;52313.56;5050268;28;19941;-67
2023/09/29 08:16:59;;;;;;;;;;;;;;;-144.99;100.00;52266.69;5032615;28;19980;-66
2023/09/29 08:19:25;;;;;;;;;;;;;;;-144.99;100.00;52321.72;5033953;28;20376;-65
2023/09/29 08:21:52;;;;;;;;;;;;;;;-144.99;100.00;52313.56;5033773;28;20111;-66
2023/09/29 08:24:18;;;;;;;;;;;;;;;-144.99;100.00;52280.97;5032042;28;20026;-66
2023/09/29 08:26:45;;;;;;;;;;;;;;;-144.99;100.00;52327.84;5028202;28;20001;-66
2023/09/29 08:29:16;;;;;;;;;;;;;;;-144.99;100.00;52268.72;5046737;28;19954;-66
2023/09/29 08:31:42;;;;;;;;;;;;;;;-144.99;100.00;52276.88;5053987;28;19946;-66
2023/09/29 08:34:10;;;;;;;;;;;;;;;-144.99;100.00;52297.25;5043871;28;20023;-68
2023/09/29 08:36:37;;;;;;;;;;;;;;;-144.99;100.00;52309.50;5039949;28;19939;-65
2023/09/29 08:39:04;;;;;;;;;;;;;;;-144.99;100.00;52293.19;5057587;28;19935;-65
2023/09/29 08:41:34;;;;;;;;;;;;;;;-144.99;100.00;52321.72;5044911;28;19943;-65
2023/09/29 08:44:02;;;;;;;;;;;;;;;-144.99;100.00;52305.41;5052911;28;19944;-71
2023/09/29 08:46:29;;;;;;;;;;;;;;;-144.99;100.00;52258.53;5041328;28;19933;-71
2023/09/29 08:48:57;;;;;;;;;;;;;;;-144.99;100.00;52301.34;5036245;28;19943;-70
2023/09/29 08:51:25;;;;;;;;;;;;;;;-144.99;100.00;52289.13;5048006;28;19955;-70
2023/09/29 08:53:54;;;;;;;;;;;;;;;-144.99;100.00;52252.44;5050522;28;19951;-70
2023/09/29 08:56:20;;;;;;;;;;;;;;;-144.99;100.00;52299.31;5056775;28;19944;-70
2023/09/29 08:58:47;;;;;;;;;;;;;;;-144.99;100.00;52309.50;5055910;28;19970;-71
2023/09/29 09:01:14;;;;;;;;;;;;;;;-144.99;100.00;52333.94;5039738;28;19976;-70
2023/09/29 09:03:41;;;;;;;;;;;;;;;-144.99;100.00;52309.50;5046428;28;19939;-71
2023/09/29 09:06:21;;;;;;;;;;;;;;;-144.99;100.00;52278.91;5060632;28;20044;-71
2023/09/29 09:08:49;;;;;;;;;;;;;;;-144.99;100.00;52309.50;5050924;28;19947;-71
2023/09/29 09:11:15;;;;;;;;;;;;;;;-144.99;100.00;52325.81;5043930;28;20333;-71
2023/09/29 09:13:42;;;;;;;;;;;;;;;-144.99;100.00;52252.44;5044084;28;20200;-71
2023/09/29 09:16:09;;;;;;;;;;;;;;;-144.99;100.00;52297.25;5048615;28;19942;-71
2023/09/29 09:18:36;;;;;;;;;;;;;;;-144.99;100.00;52280.97;5033362;28;19944;-71
2023/09/29 09:21:02;;;;;;;;;;;;;;;-144.99;100.00;52297.25;5028628;28;20385;-70
2023/09/29 09:23:37;;;;;;;;;;;;;;;-144.99;100.00;52305.41;5049442;28;19991;-71
2023/09/29 09:26:13;;;;;;;;;;;;;;;-144.99;100.00;52276.88;5047354;28;20066;-72
2023/09/29 09:28:40;;;;;;;;;;;;;;;-144.99;100.00;52297.25;5048574;28;19959;-71
2023/09/29 09:31:07;;;;;;;;;;;;;;;-144.99;100.00;52276.88;5046592;28;19958;-71
2023/09/29 09:33:35;;;;;;;;;;;;;;;-144.99;100.00;52293.19;5057073;28;20360;-71
2023/09/29 09:36:06;;;;;;;;;;;;;;;-144.99;100.00;52246.31;5041372;28;19956;-71
2023/09/29 09:38:32;;;;;;;;;;;;;;;-144.99;100.00;52262.63;5046954;28;20389;-71
2023/09/29 09:41:00;;;;;;;;;;;;;;;-144.99;100.00;52293.19;5036105;28;19988;-71
2023/09/29 09:43:29;;;;;;;;;;;;;;;-144.99;100.00;52264.66;5037914;28;20047;-71
2023/09/29 09:46:11;;;;;;;;;;;;;;;-144.99;100.00;52227.97;5037663;28;19964;-71
2023/09/29 09:48:45;;;;;;;;;;;;;;;-144.99;100.00;52260.56;5050664;28;19937;-71
2023/09/29 09:51:12;;;;;;;;;;;;;;;-144.99;100.00;52289.13;5039305;28;19937;-71
2023/09/29 09:53:39;;;;;;;;;;;;;;;-144.99;100.00;52256.50;5027660;28;20404;-71
2023/09/29 09:56:10;;;;;;;;;;;;;;;-144.99;100.00;52293.19;5033403;28;19981;-71
2023/09/29 09:58:38;;;;;;;;;;;;;;;-144.99;100.00;52260.56;5051670;28;19924;-71
2023/09/29 10:01:06;;;;;;;;;;;;;;;-144.99;100.00;52293.19;5047707;28;19956;-71
2023/09/29 10:03:33;;;;;;;;;;;;;;;-144.99;100.00;52264.66;5034131;28;19944;-71
2023/09/29 10:06:00;;;;;;;;;;;;;;;-144.99;100.00;52244.28;5048105;28;19952;-71
2023/09/29 10:08:29;;;;;;;;;;;;;;;-144.99;96.35;52203.50;5052239;28;19973;-70
2023/09/29 10:11:09;;;;;;;;;;;;;;;-144.99;94.25;52195.34;5052753;28;19988;-70
2023/09/29 10:13:36;;;;;;;;;;;;;;;-144.99;92.04;52170.91;5031626;28;19925;-70
2023/09/29 10:16:05;;;;;;;;;;;;;;;-144.99;86.55;52138.28;5037833;28;19970;-71
2023/09/29 10:18:33;;;;;;;;;;;;;;;-144.99;81.40;52154.59;5037946;28;19951;-71
2023/09/29 10:21:06;;;;;;;;;;;;;;;-144.99;80.37;52174.97;5039656;28;20610;-73
2023/09/29 10:23:44;;;;;;;;;;;;;;;-144.99;80.64;52174.97;5035814;28;19972;-73
2023/09/29 10:26:11;;;;;;;;;;;;;;;-144.99;81.65;52162.75;5043205;28;19966;-73
2023/09/29 10:28:39;;;;;;;;;;;;;;;-144.99;83.06;52223.88;5041533;28;19946;-73
2023/09/29 10:31:13;;;;;;;;;;;;;;;-144.99;84.50;52195.34;5040156;28;19953;-70
2023/09/29 10:33:53;;;;;;;;;;;;;;;-144.99;85.77;52197.41;5042864;28;19946;-71
2023/09/29 10:36:20;;;;;;;;;;;;;;;-144.99;84.74;52199.44;5047385;28;19937;-72
2023/09/29 10:38:47;;;;;;;;;;;;;;;-144.99;85.44;52236.13;5055295;28;20416;-72
2023/09/29 10:41:14;;;;;;;;;;;;;;;-144.99;86.65;52240.19;5038728;28;19929;-72
2023/09/29 10:43:42;;;;;;;;;;;;;;;-144.99;87.83;52252.44;5066598;28;19949;-72
2023/09/29 10:46:10;;;;;;;;;;;;;;;-144.99;88.67;52256.50;5061863;28;20008;-72
2023/09/29 10:48:44;;;;;;;;;;;;;;;-144.99;90.51;52252.44;5060740;28;19937;-72
2023/09/29 10:51:11;;;;;;;;;;;;;;;-144.99;91.82;52258.53;5076467;28;19962;-72
2023/09/29 10:53:39;;;;;;;;;;;;;;;-144.99;93.17;52297.25;5045030;28;19978;-72
2023/09/29 10:56:06;;;;;;;;;;;;;;;-144.99;94.34;52256.50;5039923;28;19978;-72
2023/09/29 10:58:37;;;;;;;;;;;;;;;-144.99;95.85;52234.09;5038755;28;19982;-72
2023/09/29 11:01:04;;;;;;;;;;;;;;;-144.99;94.86;52240.19;5046019;28;20437;-71
2023/09/29 11:03:32;;;;;;;;;;;;;;;-144.99;94.88;52219.81;5047028;28;19940;-70
2023/09/29 11:06:03;;;;;;;;;;;;;;;-144.99;94.03;52215.75;5059779;28;20049;-71
2023/09/29 11:08:30;;;;;;;;;;;;;;;-144.99;92.94;52215.75;5044506;28;19951;-71
2023/09/29 11:10:58;;;;;;;;;;;;;;;-144.99;91.69;52199.44;5046836;28;20041;-72
2023/09/29 11:16:02;;;;;;;;;;;;;;;-144.99;91.09;52223.88;5028090;28;20050;-69
2023/09/29 11:18:28;;;;;;;;;;;;;;;-144.99;90.53;52191.28;5023692;28;19948;-69
2023/09/29 11:20:58;;;;;;;;;;;;;;;-144.99;89.50;52177.00;5038163;28;19999;-69
2023/09/29 11:23:25;;;;;;;;;;;;;;;-144.99;88.69;52183.13;5035246;28;20405;-69
2023/09/29 11:25:54;;;;;;;;;;;;;;;-144.99;87.13;52197.41;5042005;28;20007;-69
2023/09/29 11:28:21;;;;;;;;;;;;;;;-144.99;87.50;52240.19;5042359;28;20537;-69
2023/09/29 11:30:48;;;;;;;;;;;;;;;-144.99;87.93;52195.34;5030736;28;19953;-69
2023/09/29 11:33:15;;;;;;;;;;;;;;;-144.99;86.64;52146.44;5034234;28;20053;-70
2023/09/29 11:35:45;;;;;;;;;;;;;;;-144.99;86.09;52174.97;5034444;28;19941;-69
2023/09/29 11:38:16;;;;;;;;;;;;;;;-144.99;84.99;52150.53;5037655;28;19937;-68
2023/09/29 11:40:43;;;;;;;;;;;;;;;-144.99;85.07;52117.91;5050902;28;20339;-68
2023/09/29 11:43:10;;;;;;;;;;;;;;;-144.99;85.19;52195.34;5046027;28;19945;-70
2023/09/29 11:45:39;;;;;;;;;;;;;;;-144.99;84.52;52146.44;5031939;28;19953;-68
2023/09/29 11:48:06;;;;;;;;;;;;;;;-144.99;82.45;52081.22;5034221;28;19985;-69
2023/09/29 11:50:33;;;;;;;;;;;;;;;-144.99;79.70;52138.28;5034975;28;20071;-69
2023/09/29 11:53:03;;;;;;;;;;;;;;;-144.99;80.08;52162.75;5034336;28;20296;-70
2023/09/29 11:55:31;;;;;;;;;;;;;;;-144.99;80.01;52177.00;5037075;28;19943;-69
2023/09/29 11:57:57;;;;;;;;;;;;;;;-144.99;81.77;52207.59;5045185;28;20308;-69
2023/09/29 12:00:24;;;;;;;;;;;;;;;-144.99;83.06;52134.22;5031737;28;20482;-68
2023/09/29 12:02:51;;;;;;;;;;;;;;;-144.99;82.25;52101.59;5036316;28;20031;-70
2023/09/29 12:05:17;;;;;;;;;;;;;;;-144.99;78.48;52081.22;5047340;28;19971;-68
2023/09/29 12:07:43;;;;;;;;;;;;;;;-144.99;75.61;52069.00;5039590;28;19982;-69
2023/09/29 12:10:10;;;;;;;;;;;;;;;-144.99;74.11;52073.06;5044487;28;19996;-68
2023/09/29 12:12:38;;;;;;;;;;;;;;;-144.99;73.33;52117.91;5050380;28;20030;-67
2023/09/29 12:15:05;;;;;;;;;;;;;;;-144.99;73.82;52134.22;5040417;28;19959;-67
2023/09/29 12:17:31;;;;;;;;;;;;;;;-144.99;74.92;52174.97;5048861;28;20054;-66
2023/09/29 12:19:58;;;;;;;;;;;;;;;-144.99;76.45;52179.06;5049248;28;20050;-67
2023/09/29 12:22:25;;;;;;;;;;;;;;;-144.99;78.29;52199.44;5046672;28;19946;-67